Latest Weather Observations for Mount Moornapa

IDV60801

Issued at 10:02 pm EST Friday 29 April 2016 (issued every 30 minutes, with the page automatically refreshed every 10 minutes)

About weather observations | Map of weather stations | Latest weather observations for VIC | Other Formats
Station Details ID: 085296 Name: MOUNT MOORNAPA Lat: -37.75 Lon: 147.14 Height: 480.0 m
Data from the previous 72 hours. | See also: Recent months at Mount Moornapa
Date/Time
EST
Temp
°C
App
Temp
°C
Dew
Point
Rel
Hum
%
Delta-T
°C
Wind Press
QNH
hPa
Press
MSL
hPa
Rain
since 9 am
mm
Dir
 
Spd
km/h
Gust
km/h
Spd
kts
Gust
kts
29/10:00pm 15.6 14.9 13.1 85 1.4 NNW 9 15 5 8 - - 0.0
29/09:30pm 15.6 14.5 13.1 85 1.4 NNW 11 15 6 8 - - 0.0
29/09:00pm 15.5 14.7 13.0 85 1.4 NNW 9 13 5 7 - - 0.0
29/08:30pm 15.3 15.3 12.4 83 1.6 NNW 4 7 2 4 - - 0.0
29/08:00pm 15.1 15.7 13.0 87 1.2 SSW 2 4 1 2 - - 0.0
29/07:30pm 15.1 15.4 13.5 90 0.9 E 4 6 2 3 - - 0.0
29/07:00pm 15.5 16.5 13.2 86 1.3 CALM 0 6 0 3 - - 0.0
29/06:30pm 16.9 16.3 11.8 72 2.8 NNW 6 11 3 6 - - 0.0
29/06:00pm 17.3 16.5 11.6 69 3.2 NNW 7 15 4 8 - - 0.0
29/05:30pm 17.0 15.9 11.9 72 2.9 NNW 9 17 5 9 - - 0.0
29/05:00pm 17.1 16.6 12.2 73 2.8 E 6 9 3 5 - - 0.0
29/04:30pm 17.7 17.2 12.2 70 3.1 NNW 6 11 3 6 - - 0.0
29/04:00pm 18.0 17.0 12.2 69 3.3 NNW 9 19 5 10 - - 0.0
29/03:30pm 18.4 16.6 12.2 67 3.5 NNW 13 20 7 11 - - 0.0
29/03:00pm 18.8 16.5 11.6 63 4.0 NNW 15 26 8 14 - - 0.0
29/02:30pm 19.0 16.7 11.6 62 4.2 NNW 15 32 8 17 - - 0.0
29/02:00pm 18.6 18.2 12.4 67 3.5 WNW 6 13 3 7 - - 0.0
29/01:30pm 19.3 18.7 11.8 62 4.2 WNW 6 13 3 7 - - 0.0
29/01:00pm 19.7 18.8 11.5 59 4.6 NW 7 17 4 9 - - 0.0
29/12:30pm 19.3 18.2 12.1 63 4.1 NW 9 22 5 12 - - 0.0
29/12:00pm 20.2 17.9 11.7 58 4.8 NNW 15 32 8 17 - - 0.0
29/11:30am 20.0 19.1 12.5 62 4.3 NNW 9 19 5 10 - - 0.0
29/11:00am 19.5 18.8 12.0 62 4.3 NNW 7 13 4 7 - - 0.0
29/10:30am 19.8 19.0 11.6 59 4.6 NNW 7 20 4 11 - - 0.0
29/10:00am 19.1 17.3 10.9 59 4.6 NNW 11 17 6 9 - - 0.0
29/09:30am 18.8 16.4 10.1 57 4.8 NNW 13 19 7 10 - - 0.0
29/09:00am 18.9 16.5 9.9 56 4.9 NNW 13 20 7 11 - - 0.0
29/08:30am 18.3 15.8 9.6 57 4.7 NNW 13 20 7 11 - - 0.0
29/08:00am 18.6 15.9 9.1 54 5.1 NNW 13 19 7 10 - - 0.0
29/07:30am 18.7 16.3 8.7 52 5.3 N 11 17 6 9 - - 0.0
29/07:00am 19.2 16.8 8.5 50 5.7 NNW 11 19 6 10 - - 0.0
29/06:30am 19.5 17.4 8.2 48 6.0 N 9 13 5 7 - - 0.0
29/06:00am 19.6 17.1 8.3 48 6.0 NNW 11 20 6 11 - - 0.0
29/05:30am 19.2 17.7 8.5 50 5.7 N 6 11 3 6 - - 0.0
29/05:00am 18.7 16.8 8.9 53 5.2 NNW 9 17 5 9 - - 0.0
29/04:30am 18.2 17.2 9.0 55 4.9 ESE 4 7 2 4 - - 0.0
29/04:00am 18.8 17.8 9.0 53 5.2 E 4 7 2 4 - - 0.0
29/03:30am 18.5 17.5 9.0 54 5.1 ENE 4 9 2 5 - - 0.0
29/03:00am 18.6 17.3 9.1 54 5.1 ENE 6 13 3 7 - - 0.0
29/02:30am 18.7 17.4 9.2 54 5.1 N 6 13 3 7 - - 0.0
29/02:00am 18.8 17.4 9.6 55 5.0 N 7 19 4 10 - - 0.0
29/01:30am 18.9 17.2 9.7 55 5.0 N 9 17 5 9 - - 0.0
29/01:00am 18.3 16.6 9.9 58 4.6 N 9 15 5 8 - - 0.0
29/12:30am 18.1 16.4 10.0 59 4.4 N 9 15 5 8 - - 0.0
29/12:00am 18.6 17.3 9.9 57 4.7 NNE 7 15 4 8 - - 0.0
 
Date/Time
EST
Temp
°C
App
Temp
°C
Dew
Point
Rel
Hum
%
Delta-T
°C
Wind Press
QNH
hPa
Press
MSL
hPa
Rain
since 9 am
mm
Dir
 
Spd
km/h
Gust
km/h
Spd
kts
Gust
kts
28/11:30pm 18.6 17.0 10.2 58 4.6 N 9 17 5 9 - - 0.0
28/11:00pm 18.6 17.0 10.2 58 4.6 N 9 17 5 9 - - 0.0
28/10:30pm 18.6 17.0 10.2 58 4.6 NNE 9 19 5 10 - - 0.0
28/10:00pm 18.5 17.3 10.3 59 4.5 NNE 7 15 4 8 - - 0.0
28/09:30pm 18.4 17.2 10.3 59 4.4 NNE 7 15 4 8 - - 0.0
28/09:00pm 18.5 17.3 10.3 59 4.5 N 7 15 4 8 - - 0.0
28/08:30pm 18.9 17.7 10.2 57 4.8 NNE 7 15 4 8 - - 0.0
28/08:00pm 18.9 17.7 10.2 57 4.8 NNE 7 17 4 9 - - 0.0
28/07:30pm 19.0 17.8 10.3 57 4.8 NNE 7 11 4 6 - - 0.0
28/07:00pm 19.2 18.1 10.5 57 4.8 N 7 13 4 7 - - 0.0
28/06:30pm 18.5 16.3 10.8 61 4.3 N 13 19 7 10 - - 0.0
28/06:00pm 18.9 17.4 10.7 59 4.5 N 9 13 5 7 - - 0.0
28/05:30pm 19.0 17.5 10.6 58 4.6 N 9 13 5 7 - - 0.0
28/05:00pm 19.1 17.6 10.4 57 4.8 N 9 13 5 7 - - 0.0
28/04:30pm 19.3 17.3 10.3 56 5.0 N 11 15 6 8 - - 0.0
28/04:00pm 19.5 17.6 10.5 56 5.0 NNW 11 15 6 8 - - 0.0
28/03:30pm 19.8 18.0 10.8 56 5.0 NNW 11 17 6 9 - - 0.0
28/03:00pm 19.9 18.6 11.1 57 4.9 NNW 9 15 5 8 - - 0.0
28/02:30pm 19.9 18.9 11.1 57 4.9 NNW 7 15 4 8 - - 0.0
28/02:00pm 20.4 18.7 11.3 56 5.1 NNW 11 22 6 12 - - 0.0
28/01:30pm 20.5 18.7 10.9 54 5.4 NNW 11 24 6 13 - - 0.0
28/01:00pm 20.6 18.5 11.0 54 5.4 NNW 13 22 7 12 - - 0.0
28/12:30pm 20.2 18.3 10.6 54 5.3 NNW 11 22 6 12 - - 0.0
28/12:00pm 20.3 18.2 11.2 56 5.1 NNW 13 24 7 13 - - 0.0
28/11:30am 19.4 17.5 10.4 56 5.0 NNW 11 17 6 9 - - 0.0
28/11:00am 19.3 17.3 10.3 56 5.0 NNW 11 24 6 13 - - 0.0
28/10:30am 19.3 16.5 10.0 55 5.1 NNW 15 26 8 14 - - 0.0
28/10:00am 19.4 17.1 10.4 56 5.0 NNW 13 24 7 13 - - 0.0
28/09:30am 19.2 16.5 10.2 56 4.9 NNW 15 26 8 14 - - 0.0
28/09:00am 19.5 16.6 9.7 53 5.3 NNW 15 28 8 15 - - 0.0
28/08:30am 19.4 16.8 9.3 52 5.5 NNW 13 20 7 11 - - 0.0
28/08:00am 19.6 16.5 8.9 50 5.7 NNW 15 24 8 13 - - 0.0
28/07:30am 19.6 16.5 8.9 50 5.7 NNW 15 26 8 14 - - 0.0
28/07:00am 19.6 15.7 8.6 49 5.9 NNW 19 35 10 19 - - 0.0
28/06:30am 19.4 15.9 8.7 50 5.7 NW 17 41 9 22 - - 0.0
28/06:00am 18.7 14.6 8.7 52 5.3 NNW 20 35 11 19 - - 0.0
28/05:30am 18.7 15.2 8.7 52 5.3 NNW 17 30 9 16 - - 0.0
28/05:00am 18.7 14.6 8.7 52 5.3 NNW 20 33 11 18 - - 0.0
28/04:30am 19.1 15.9 8.4 50 5.7 NNW 15 26 8 14 - - 0.0
28/04:00am 19.1 15.9 8.4 50 5.7 NNW 15 24 8 13 - - 0.0
28/03:30am 18.8 15.6 8.5 51 5.5 NNW 15 24 8 13 - - 0.0
28/03:00am 18.8 15.8 7.9 49 5.7 N 13 24 7 13 - - 0.0
28/02:30am 19.1 16.2 8.1 49 5.8 NNW 13 22 7 12 - - 0.0
28/02:00am 19.0 17.8 8.1 49 5.7 NE 4 9 2 5 - - 0.0
28/01:30am 18.6 17.8 8.0 50 5.6 NE 2 9 1 5 - - 0.0
28/01:00am 18.8 17.6 7.9 49 5.7 ENE 4 7 2 4 - - 0.0
28/12:30am 18.9 17.0 7.7 48 5.9 NNE 7 13 4 7 - - 0.0
28/12:00am 18.9 16.7 7.7 48 5.9 NNW 9 15 5 8 - - 0.0
 
Date/Time
EST
Temp
°C
App
Temp
°C
Dew
Point
Rel
Hum
%
Delta-T
°C
Wind Press
QNH
hPa
Press
MSL
hPa
Rain
since 9 am
mm
Dir
 
Spd
km/h
Gust
km/h
Spd
kts
Gust
kts
27/11:30pm 18.4 16.6 8.1 51 5.4 NW 7 13 4 7 - - 0.0
27/11:00pm 18.4 16.3 8.1 51 5.4 NNW 9 15 5 8 - - 0.0
27/10:30pm 18.0 15.5 8.3 53 5.1 NNW 11 19 6 10 - - 0.0
27/10:00pm 18.0 14.8 8.3 53 5.1 NNW 15 24 8 13 - - 0.0
27/09:30pm 17.8 14.6 8.4 54 4.9 NNW 15 26 8 14 - - 0.0
27/09:00pm 17.4 13.2 8.3 55 4.8 NNW 20 33 11 18 - - 0.0
27/08:30pm 17.6 15.1 8.2 54 4.9 NNW 11 17 6 9 - - 0.0
27/08:00pm 18.6 16.5 8.3 51 5.4 NNW 9 17 5 9 - - 0.0
27/07:30pm 18.3 16.2 8.3 52 5.3 NNW 9 20 5 11 - - 0.0
27/07:00pm 17.8 15.3 8.1 53 5.1 NNW 11 20 6 11 - - 0.0
27/06:30pm 18.0 15.0 7.7 51 5.4 NNW 13 32 7 17 - - 0.0
27/06:00pm 19.1 15.3 7.5 47 6.1 NNW 17 30 9 16 - - 0.0
27/05:30pm 19.1 16.1 7.5 47 6.1 NNW 13 33 7 18 - - 0.0
27/05:00pm 19.6 17.3 7.4 45 6.4 NNW 9 20 5 11 - - 0.0
27/04:30pm 21.6 19.0 7.8 41 7.3 NNW 11 22 6 12 - - 0.0
27/04:00pm 22.7 18.8 7.3 37 8.2 NNW 17 37 9 20 - - 0.0
27/03:30pm 24.0 20.8 6.7 33 9.2 NNW 13 28 7 15 - - 0.0
27/03:00pm 24.8 22.7 8.3 35 9.0 NW 9 19 5 10 - - 0.0
27/02:30pm 21.7 19.6 8.2 42 7.2 NNW 9 20 5 11 - - 0.0
27/02:00pm 23.9 21.9 8.7 38 8.3 NNW 9 22 5 12 - - 0.0
27/01:30pm 22.9 20.4 9.7 43 7.3 NNW 13 24 7 13 - - 0.0
27/01:00pm 22.8 21.0 8.1 39 7.9 NNW 7 17 4 9 - - 0.0
27/12:30pm 24.3 22.3 8.7 37 8.6 NNW 9 22 5 12 - - 0.0
27/12:00pm 23.7 22.3 7.3 35 8.8 NNW 4 11 2 6 - - 0.0
27/11:30am 23.0 21.2 7.9 38 8.1 N 7 17 4 9 - - 0.0
27/11:00am 21.6 19.8 8.1 42 7.2 NNW 7 13 4 7 - - 0.0
27/10:30am 21.3 19.6 8.2 43 7.0 NNW 7 13 4 7 - - 0.0
27/10:00am 21.1 19.5 8.0 43 7.0 NNW 6 13 3 7 - - 0.0
27/09:30am 20.1 18.4 5.7 39 7.3 NNW 4 9 2 5 - - 0.0
27/09:00am 19.2 17.0 6.0 42 6.7 NNW 7 9 4 5 - - 0.0
27/08:30am 18.1 15.9 6.0 45 6.1 NNW 7 17 4 9 - - 0.0
27/08:00am 16.1 13.6 4.8 47 5.5 NW 7 17 4 9 - - 0.0
27/07:30am 16.9 13.4 3.6 41 6.3 N 11 13 6 7 - - 0.0
27/07:00am 16.8 13.2 3.1 40 6.4 N 11 17 6 9 - - 0.0
27/06:30am 16.9 13.3 2.9 39 6.6 N 11 17 6 9 - - 0.0
27/06:00am 16.7 13.1 2.7 39 6.5 NNW 11 19 6 10 - - 0.0
27/05:30am 16.9 13.2 2.5 38 6.7 N 11 15 6 8 - - 0.0
27/05:00am 17.8 14.8 2.2 35 7.3 N 7 13 4 7 - - 0.0
27/04:30am 16.4 12.7 2.4 39 6.5 NNW 11 17 6 9 - - 0.0
27/04:00am 17.7 14.0 2.1 35 7.2 NNW 11 26 6 14 - - 0.0
27/03:30am 17.6 14.7 1.2 33 7.5 N 6 7 3 4 - - 0.0
27/03:00am 16.5 13.2 2.5 39 6.5 N 9 11 5 6 - - 0.0
27/02:30am 16.2 13.3 2.6 40 6.3 NNE 7 11 4 6 - - 0.0
27/02:00am 15.5 12.0 3.3 44 5.7 NNE 11 13 6 7 - - 0.0
27/01:30am 15.8 11.9 3.6 44 5.8 N 13 15 7 8 - - 0.0
27/01:00am 16.2 12.0 3.6 43 6.0 N 15 19 8 10 - - 0.0
27/12:30am 14.6 10.6 4.9 52 4.7 N 15 17 8 9 - - 0.0
27/12:00am 15.2 11.2 5.1 51 4.9 N 15 17 8 9 - - 0.0
 
Date/Time
EST
Temp
°C
App
Temp
°C
Dew
Point
Rel
Hum
%
Delta-T
°C
Wind Press
QNH
hPa
Press
MSL
hPa
Rain
since 9 am
mm
Dir
 
Spd
km/h
Gust
km/h
Spd
kts
Gust
kts
26/11:30pm 15.2 11.3 5.4 52 4.8 N 15 17 8 9 - - 0.0
26/11:00pm 15.3 11.2 6.1 54 4.6 N 17 22 9 12 - - 0.0
26/10:30pm 15.3 12.3 7.6 60 3.9 N 13 17 7 9 - - 0.0

Other Formats:

Comma delimited format used in spreadsheet applications
http://www.bom.gov.au/fwo/IDV60801/IDV60801.95913.axf

JavaScript Object Notation format (JSON) in row-major order
http://www.bom.gov.au/fwo/IDV60801/IDV60801.95913.json